Time;durP1;ratioP1;P1;durP2;ratioP2;P2;SDS_P1;SDS_P2;PMS_P1;PMS_P2;Temp;Humidity;BMP_temperature;BMP_pressure;BME280_temperature;BME280_humidity;BME280_pressure;Samples;Min_cycle;Max_cycle;Signal;HPM_P1;HPM_P2
2022/12/24 00:01:07;;;;;;;;;;;;;;;8.32;76.50;101329.91;5045550;28;19913;-82
2022/12/24 00:03:33;;;;;;;;;;;;;;;8.26;76.49;101327.75;5039948;28;20057;-81
2022/12/24 00:05:58;;;;;;;;;;;;;;;8.30;76.40;101331.50;5047226;28;19913;-82
2022/12/24 00:08:23;;;;;;;;;;;;;;;8.31;76.37;101328.97;5038421;28;19921;-82
2022/12/24 00:10:50;;;;;;;;;;;;;;;8.28;76.55;101331.38;5036503;28;19955;-82
2022/12/24 00:13:15;;;;;;;;;;;;;;;8.26;76.70;101325.16;5036932;28;19963;-81
2022/12/24 00:15:41;;;;;;;;;;;;;;;8.26;76.45;101326.84;5046948;28;20354;-82
2022/12/24 00:18:06;;;;;;;;;;;;;;;8.28;76.39;101333.06;5051203;28;20369;-83
2022/12/24 00:20:32;;;;;;;;;;;;;;;8.27;76.49;101331.25;5050518;28;20398;-83
2022/12/24 00:22:57;;;;;;;;;;;;;;;8.30;76.58;101329.78;5045287;28;20306;-82
2022/12/24 00:25:22;;;;;;;;;;;;;;;8.31;76.31;101338.47;5050993;28;20393;-83
2022/12/24 00:27:48;;;;;;;;;;;;;;;8.28;76.48;101344.38;5046890;28;19917;-83
2022/12/24 00:30:13;;;;;;;;;;;;;;;8.26;76.33;101343.38;5047526;28;20464;-83
2022/12/24 00:32:39;;;;;;;;;;;;;;;8.27;76.26;101350.34;5039187;28;20291;-83
2022/12/24 00:35:04;;;;;;;;;;;;;;;8.28;76.10;101335.69;5045528;28;20340;-82
2022/12/24 00:37:30;;;;;;;;;;;;;;;8.24;76.56;101336.25;5037866;28;20349;-82
2022/12/24 00:39:55;;;;;;;;;;;;;;;8.25;76.56;101335.44;5043632;28;19929;-83
2022/12/24 00:42:20;;;;;;;;;;;;;;;8.29;76.14;101340.97;5036151;28;19917;-83
2022/12/24 00:44:46;;;;;;;;;;;;;;;8.24;76.39;101336.25;5047317;28;19917;-83
2022/12/24 00:47:12;;;;;;;;;;;;;;;8.25;76.55;101330.22;5048633;28;20434;-83
2022/12/24 00:49:38;;;;;;;;;;;;;;;8.21;76.22;101336.91;5050047;28;19917;-83
2022/12/24 00:52:03;;;;;;;;;;;;;;;8.24;76.53;101337.16;5046887;28;20360;-84
2022/12/24 00:54:29;;;;;;;;;;;;;;;8.29;75.98;101338.38;5045009;28;20361;-83
2022/12/24 00:56:54;;;;;;;;;;;;;;;8.27;76.34;101337.34;5044678;28;19917;-83
2022/12/24 00:59:19;;;;;;;;;;;;;;;8.23;76.30;101332.72;5043195;28;19927;-84
2022/12/24 01:01:45;;;;;;;;;;;;;;;8.23;76.17;101329.22;5045734;28;19939;-83
2022/12/24 01:06:56;;;;;;;;;;;;;;;8.26;76.25;101325.16;5040761;28;20298;-82
2022/12/24 01:09:21;;;;;;;;;;;;;;;8.25;76.18;101328.53;5043138;28;20304;-82
2022/12/24 01:11:46;;;;;;;;;;;;;;;8.22;76.18;101330.03;5047005;28;20379;-82
2022/12/24 01:14:12;;;;;;;;;;;;;;;8.20;75.97;101327.31;5046303;28;20034;-84
2022/12/24 01:16:37;;;;;;;;;;;;;;;8.21;76.14;101325.59;5050294;28;19996;-84
2022/12/24 01:19:03;;;;;;;;;;;;;;;8.19;76.11;101320.31;5050533;28;20424;-83
2022/12/24 01:21:28;;;;;;;;;;;;;;;8.22;76.32;101320.50;5047631;28;19921;-83
2022/12/24 01:23:54;;;;;;;;;;;;;;;8.26;75.77;101319.06;5046925;28;19913;-82
2022/12/24 01:26:19;;;;;;;;;;;;;;;8.24;75.76;101315.44;5047984;28;20381;-82
2022/12/24 01:28:44;;;;;;;;;;;;;;;8.20;75.74;101313.41;5048065;28;20416;-82
2022/12/24 01:31:14;;;;;;;;;;;;;;;8.20;76.18;101316.91;5049389;28;20017;-81
2022/12/24 01:33:39;;;;;;;;;;;;;;;8.24;76.08;101315.44;5047556;28;20059;-83
2022/12/24 01:36:05;;;;;;;;;;;;;;;8.23;76.11;101319.72;5045450;28;19986;-83
2022/12/24 01:38:30;;;;;;;;;;;;;;;8.27;75.82;101310.44;5048794;28;19921;-83
2022/12/24 01:43:39;;;;;;;;;;;;;;;8.18;76.02;101302.88;5040774;28;19923;-84
2022/12/24 01:46:19;;;;;;;;;;;;;;;8.12;76.28;101295.53;5045827;28;19917;-83
2022/12/24 01:48:44;;;;;;;;;;;;;;;8.17;76.13;101295.88;5040447;28;19921;-83
2022/12/24 01:51:28;;;;;;;;;;;;;;;8.18;76.15;101296.78;5040390;28;19925;-83
2022/12/24 01:53:55;;;;;;;;;;;;;;;8.15;76.14;101300.06;5048017;28;19925;-84
2022/12/24 01:56:21;;;;;;;;;;;;;;;8.17;75.87;101295.88;5035510;28;19917;-83
2022/12/24 01:58:47;;;;;;;;;;;;;;;8.21;75.64;101296.97;5051798;28;20400;-83
2022/12/24 02:01:12;;;;;;;;;;;;;;;8.22;75.68;101309.22;5051843;28;19920;-83
2022/12/24 02:03:38;;;;;;;;;;;;;;;8.16;75.94;101312.28;5049459;28;19928;-84
2022/12/24 02:06:04;;;;;;;;;;;;;;;8.14;75.89;101314.75;5044791;28;20349;-84
2022/12/24 02:08:38;;;;;;;;;;;;;;;8.15;75.98;101307.88;5051301;28;19920;-83
2022/12/24 02:11:24;;;;;;;;;;;;;;;8.15;76.11;101302.66;5054088;28;20313;-83
2022/12/24 02:13:50;;;;;;;;;;;;;;;8.18;75.79;101301.97;5045247;28;19996;-83
2022/12/24 02:16:24;;;;;;;;;;;;;;;8.18;75.65;101307.19;5052139;28;19952;-83
2022/12/24 02:18:56;;;;;;;;;;;;;;;8.11;75.88;101298.03;5054728;28;20386;-84
2022/12/24 02:21:28;;;;;;;;;;;;;;;8.11;76.06;101313.66;5055513;28;20455;-83
2022/12/24 02:24:12;;;;;;;;;;;;;;;8.14;76.16;101316.44;5054193;28;20011;-83
2022/12/24 02:26:52;;;;;;;;;;;;;;;8.13;76.15;101312.97;5047765;28;19924;-83
2022/12/24 02:29:36;;;;;;;;;;;;;;;8.11;76.03;101311.94;5051545;28;20417;-83
2022/12/24 02:32:07;;;;;;;;;;;;;;;8.13;76.00;101309.47;5053761;28;20007;-83
2022/12/24 02:34:33;;;;;;;;;;;;;;;8.12;76.04;101307.63;5047739;28;19925;-83
2022/12/24 02:37:03;;;;;;;;;;;;;;;8.08;76.06;101308.19;5052156;28;19923;-83
2022/12/24 02:39:40;;;;;;;;;;;;;;;8.09;76.03;101310.03;5053532;28;20390;-83
2022/12/24 02:42:05;;;;;;;;;;;;;;;8.09;76.07;101307.44;5071072;28;19917;-83
2022/12/24 02:44:33;;;;;;;;;;;;;;;8.11;75.97;101309.34;5048248;28;20298;-83
2022/12/24 02:46:58;;;;;;;;;;;;;;;8.10;76.16;101307.50;5054437;28;19934;-82
2022/12/24 02:49:24;;;;;;;;;;;;;;;8.14;76.08;101311.25;5074325;28;19916;-83
2022/12/24 02:51:49;;;;;;;;;;;;;;;8.07;75.90;101312.50;5070613;28;19916;-82
2022/12/24 02:54:14;;;;;;;;;;;;;;;8.08;75.73;101313.41;5056549;28;20382;-83
2022/12/24 02:56:43;;;;;;;;;;;;;;;8.06;75.77;101307.19;5069046;28;19916;-83
2022/12/24 02:59:17;;;;;;;;;;;;;;;8.07;75.60;101312.50;5050630;28;19969;-83
2022/12/24 03:01:43;;;;;;;;;;;;;;;8.06;75.83;101315.88;5072536;28;20451;-84
2022/12/24 03:04:38;;;;;;;;;;;;;;;8.05;75.67;101315.81;5071239;28;19916;-83
2022/12/24 03:07:24;;;;;;;;;;;;;;;8.04;76.08;101306.16;5027468;28;20321;-84
2022/12/24 03:09:58;;;;;;;;;;;;;;;8.08;75.89;101313.41;5067056;28;19924;-84
2022/12/24 03:12:27;;;;;;;;;;;;;;;8.06;75.96;101321.09;5067914;28;19939;-84
2022/12/24 03:14:52;;;;;;;;;;;;;;;8.02;75.97;101311.28;5030770;28;20005;-83
2022/12/24 03:17:18;;;;;;;;;;;;;;;8.05;76.00;101311.50;5046128;28;20014;-83
2022/12/24 03:19:43;;;;;;;;;;;;;;;8.06;75.94;101321.09;5052584;28;20389;-84
2022/12/24 03:22:09;;;;;;;;;;;;;;;8.09;75.98;101323.03;5064425;28;19920;-84
2022/12/24 03:24:34;;;;;;;;;;;;;;;8.08;75.68;101326.41;5052816;28;19952;-83
2022/12/24 03:27:00;;;;;;;;;;;;;;;8.08;75.90;101321.22;5050150;28;20409;-84
2022/12/24 03:29:25;;;;;;;;;;;;;;;8.04;75.87;101319.16;5052277;28;20441;-83
2022/12/24 03:31:51;;;;;;;;;;;;;;;8.05;75.82;101306.28;5065930;28;20333;-83
2022/12/24 03:34:17;;;;;;;;;;;;;;;8.03;75.65;101309.56;5049141;28;20313;-83
2022/12/24 03:36:43;;;;;;;;;;;;;;;8.05;75.89;101310.59;5053425;28;19921;-84
2022/12/24 03:39:08;;;;;;;;;;;;;;;8.07;75.80;101306.41;5056189;28;20019;-83
2022/12/24 03:41:34;;;;;;;;;;;;;;;8.06;75.98;101305.47;5023633;28;20396;-83
2022/12/24 03:43:59;;;;;;;;;;;;;;;8.06;75.83;101313.28;5042842;28;19949;-83
2022/12/24 03:46:25;;;;;;;;;;;;;;;8.02;75.53;101313.88;5049059;28;19929;-83
2022/12/24 03:48:50;;;;;;;;;;;;;;;8.03;75.75;101313.06;5049140;28;20390;-83
2022/12/24 03:51:19;;;;;;;;;;;;;;;8.01;75.76;101313.75;5048099;28;19995;-83
2022/12/24 03:53:44;;;;;;;;;;;;;;;8.02;75.87;101318.16;5049625;28;20287;-84
2022/12/24 03:56:10;;;;;;;;;;;;;;;7.99;75.63;101312.75;5048853;28;19931;-83
2022/12/24 03:58:35;;;;;;;;;;;;;;;7.99;75.84;101308.44;5047419;28;19946;-84
2022/12/24 04:01:01;;;;;;;;;;;;;;;8.05;75.65;101305.41;5046921;28;19917;-83
2022/12/24 04:03:26;;;;;;;;;;;;;;;7.99;75.97;101300.63;5045986;28;20393;-83
2022/12/24 04:06:05;;;;;;;;;;;;;;;8.01;75.66;101300.75;5048691;28;20428;-83
2022/12/24 04:08:30;;;;;;;;;;;;;;;7.97;75.78;101304.81;5046220;28;19929;-83
2022/12/24 04:10:56;;;;;;;;;;;;;;;8.00;75.69;101298.94;5051397;28;19917;-83
2022/12/24 04:13:21;;;;;;;;;;;;;;;7.96;75.95;101297.84;5049163;28;19975;-83
2022/12/24 04:15:57;;;;;;;;;;;;;;;7.98;75.86;101301.44;5045982;28;20342;-84
2022/12/24 04:18:22;;;;;;;;;;;;;;;7.95;75.90;101302.09;5045249;28;20385;-83
2022/12/24 04:20:47;;;;;;;;;;;;;;;8.00;75.62;101296.34;5049475;28;19923;-83
2022/12/24 04:23:13;;;;;;;;;;;;;;;7.93;76.04;101292.38;5049049;28;19924;-84
2022/12/24 04:25:38;;;;;;;;;;;;;;;7.96;75.91;101305.63;5047642;28;20401;-84
2022/12/24 04:28:04;;;;;;;;;;;;;;;7.99;75.75;101307.53;5047012;28;20365;-83
2022/12/24 04:30:29;;;;;;;;;;;;;;;7.97;75.87;101306.53;5046024;28;20329;-84
2022/12/24 04:32:55;;;;;;;;;;;;;;;7.95;75.86;101309.91;5042300;28;19917;-83
2022/12/24 04:35:20;;;;;;;;;;;;;;;7.99;75.49;101304.94;5045387;28;20317;-83
2022/12/24 04:37:45;;;;;;;;;;;;;;;7.96;75.49;101310.84;5045895;28;20310;-83
2022/12/24 04:40:11;;;;;;;;;;;;;;;7.94;75.55;101309.81;5043377;28;19920;-83
2022/12/24 04:42:36;;;;;;;;;;;;;;;7.97;75.77;101309.13;5038247;28;20310;-83
2022/12/24 04:45:02;;;;;;;;;;;;;;;7.96;75.24;101313.44;5050704;28;19933;-84
2022/12/24 04:47:27;;;;;;;;;;;;;;;7.93;75.70;101315.78;5047114;28;20306;-84
2022/12/24 04:49:53;;;;;;;;;;;;;;;7.93;75.66;101308.00;5047902;28;19928;-83
2022/12/24 04:52:18;;;;;;;;;;;;;;;7.98;75.30;101308.31;5047997;28;19982;-83
2022/12/24 04:54:43;;;;;;;;;;;;;;;7.91;75.89;101304.38;5046883;28;20009;-83
2022/12/24 04:57:09;;;;;;;;;;;;;;;7.91;75.77;101301.78;5044575;28;20070;-83
2022/12/24 04:59:34;;;;;;;;;;;;;;;7.97;75.74;101310.03;5050010;28;19974;-82
2022/12/24 05:02:00;;;;;;;;;;;;;;;7.99;75.38;101304.94;5044035;28;20364;-83
2022/12/24 05:04:25;;;;;;;;;;;;;;;7.94;75.66;101315.91;5044168;28;20439;-83
2022/12/24 05:06:50;;;;;;;;;;;;;;;7.92;75.79;101303.59;5043364;28;19964;-81
2022/12/24 05:09:16;;;;;;;;;;;;;;;7.87;75.81;101308.47;5046647;28;20354;-83
2022/12/24 05:11:41;;;;;;;;;;;;;;;7.92;75.43;101314.91;5045869;28;20356;-82
2022/12/24 05:14:07;;;;;;;;;;;;;;;7.88;75.73;101319.75;5047698;28;19921;-81
2022/12/24 05:16:32;;;;;;;;;;;;;;;7.97;75.39;101314.34;5046991;28;19981;-81
2022/12/24 05:18:57;;;;;;;;;;;;;;;7.97;75.20;101319.53;5047715;28;20416;-81
2022/12/24 05:21:23;;;;;;;;;;;;;;;7.95;75.20;101320.31;5048293;28;20436;-82
2022/12/24 05:26:40;;;;;;;;;;;;;;;7.89;75.61;101325.06;5045394;28;19923;-81
2022/12/24 05:29:07;;;;;;;;;;;;;;;7.91;75.15;101325.19;5040181;28;20015;-82
2022/12/24 05:31:32;;;;;;;;;;;;;;;7.91;75.32;101336.47;5043924;28;19917;-83
2022/12/24 05:33:58;;;;;;;;;;;;;;;7.88;75.43;101343.16;5025761;28;20297;-82
2022/12/24 05:36:24;;;;;;;;;;;;;;;7.87;75.40;101336.13;5044201;28;19927;-81
2022/12/24 05:38:50;;;;;;;;;;;;;;;7.86;75.37;101340.44;5051659;28;20003;-82
2022/12/24 05:41:15;;;;;;;;;;;;;;;7.90;75.31;101342.47;5050963;28;19917;-82
2022/12/24 05:43:40;;;;;;;;;;;;;;;7.87;75.44;101344.88;5048329;28;20401;-81
2022/12/24 05:46:08;;;;;;;;;;;;;;;7.86;75.31;101336.94;5068220;28;19927;-82
2022/12/24 05:48:33;;;;;;;;;;;;;;;7.90;75.46;101339.88;5067613;28;19924;-83
2022/12/24 05:50:59;;;;;;;;;;;;;;;7.89;75.21;101339.75;5048883;28;20009;-83
2022/12/24 05:53:24;;;;;;;;;;;;;;;7.87;75.40;101333.53;5051718;28;19916;-84
2022/12/24 05:55:50;;;;;;;;;;;;;;;7.88;75.34;101340.56;5066592;28;19916;-84
2022/12/24 05:58:15;;;;;;;;;;;;;;;7.85;75.35;101355.94;5063070;28;20412;-83
2022/12/24 06:00:41;;;;;;;;;;;;;;;7.85;75.45;101359.47;5064313;28;20025;-82
2022/12/24 06:03:06;;;;;;;;;;;;;;;7.85;75.45;101353.31;5047815;28;20299;-83
2022/12/24 06:05:31;;;;;;;;;;;;;;;7.86;75.29;101360.34;5067154;28;19920;-84
2022/12/24 06:07:57;;;;;;;;;;;;;;;7.85;75.23;101355.94;5056874;28;19921;-82
2022/12/24 06:10:22;;;;;;;;;;;;;;;7.83;75.32;101355.84;5048391;28;20382;-82
2022/12/24 06:12:48;;;;;;;;;;;;;;;7.84;75.38;101352.44;5049361;28;20431;-82
2022/12/24 06:15:13;;;;;;;;;;;;;;;7.88;75.29;101359.66;5039605;28;19971;-81
2022/12/24 06:17:39;;;;;;;;;;;;;;;7.88;75.17;101354.47;5055357;28;19917;-82
2022/12/24 06:20:04;;;;;;;;;;;;;;;7.84;75.17;101360.22;5068497;28;20365;-83
2022/12/24 06:22:30;;;;;;;;;;;;;;;7.80;75.35;101355.59;5058351;28;19925;-82
2022/12/24 06:24:55;;;;;;;;;;;;;;;7.79;75.47;101361.59;5054378;28;19923;-82
2022/12/24 06:27:21;;;;;;;;;;;;;;;7.86;75.12;101362.94;5022059;28;19971;-82
2022/12/24 06:29:46;;;;;;;;;;;;;;;7.83;75.36;101358.44;5054521;28;19990;-82
2022/12/24 06:32:12;;;;;;;;;;;;;;;7.81;75.39;101353.88;5057831;28;20370;-83
2022/12/24 06:34:37;;;;;;;;;;;;;;;7.83;75.26;101350.63;5061330;28;20291;-83
2022/12/24 06:37:03;;;;;;;;;;;;;;;7.81;75.38;101361.69;5058090;28;20455;-83
2022/12/24 06:39:29;;;;;;;;;;;;;;;7.80;75.44;101354.69;5047282;28;19920;-83
2022/12/24 06:41:54;;;;;;;;;;;;;;;7.77;75.45;101364.84;5044619;28;20385;-82
2022/12/24 06:44:20;;;;;;;;;;;;;;;7.78;75.54;101364.06;5049606;28;19924;-82
2022/12/24 06:46:45;;;;;;;;;;;;;;;7.80;75.35;101359.88;5069887;28;19920;-82
2022/12/24 06:49:10;;;;;;;;;;;;;;;7.79;75.46;101363.25;5071538;28;19916;-82
2022/12/24 06:51:36;;;;;;;;;;;;;;;7.80;75.22;101366.00;5070357;28;20396;-81
2022/12/24 06:54:01;;;;;;;;;;;;;;;7.75;75.52;101367.34;5050785;28;20449;-83
2022/12/24 06:56:27;;;;;;;;;;;;;;;7.82;75.29;101376.50;5054913;28;20515;-83
2022/12/24 06:58:52;;;;;;;;;;;;;;;7.79;75.39;101371.06;5068000;28;19924;-82
2022/12/24 07:01:18;;;;;;;;;;;;;;;7.78;75.34;101372.75;5045158;28;20384;-82
2022/12/24 07:03:44;;;;;;;;;;;;;;;7.75;75.54;101368.25;5071289;28;20377;-82
2022/12/24 07:06:40;;;;;;;;;;;;;;;7.78;75.21;101371.88;5053534;28;19989;-83
2022/12/24 07:09:06;;;;;;;;;;;;;;;7.75;75.24;101369.94;5048261;28;19920;-83
2022/12/24 07:11:31;;;;;;;;;;;;;;;7.75;75.46;101373.44;5073883;28;19922;-82
2022/12/24 07:13:57;;;;;;;;;;;;;;;7.78;75.29;101366.66;5048903;28;19920;-83
2022/12/24 07:16:22;;;;;;;;;;;;;;;7.74;75.34;101368.13;5049555;28;20377;-83
2022/12/24 07:18:48;;;;;;;;;;;;;;;7.73;75.25;101368.94;5055780;28;20711;-85
2022/12/24 07:21:14;;;;;;;;;;;;;;;7.72;75.57;101364.50;5035907;28;19920;-84
2022/12/24 07:23:39;;;;;;;;;;;;;;;7.67;75.56;101374.56;5054541;28;20445;-82
2022/12/24 07:26:05;;;;;;;;;;;;;;;7.72;75.56;101372.31;5071190;28;19947;-85
2022/12/24 07:28:30;;;;;;;;;;;;;;;7.70;75.66;101372.22;5050504;28;20049;-85
2022/12/24 07:30:56;;;;;;;;;;;;;;;7.75;75.48;101365.66;5028552;28;19935;-82
2022/12/24 07:33:22;;;;;;;;;;;;;;;7.75;75.46;101369.94;5048417;28;20446;-82
2022/12/24 07:35:47;;;;;;;;;;;;;;;7.76;75.16;101366.53;5052152;28;20007;-82
2022/12/24 07:38:13;;;;;;;;;;;;;;;7.73;75.44;101374.13;5051521;28;20471;-82
2022/12/24 07:40:38;;;;;;;;;;;;;;;7.71;75.22;101368.81;5047937;28;19932;-82
2022/12/24 07:43:04;;;;;;;;;;;;;;;7.67;75.56;101364.16;5043861;28;20405;-82
2022/12/24 07:45:29;;;;;;;;;;;;;;;7.69;75.59;101369.50;5059871;28;20386;-83
2022/12/24 07:47:54;;;;;;;;;;;;;;;7.65;75.62;101365.75;5050616;28;19928;-82
2022/12/24 07:50:20;;;;;;;;;;;;;;;7.70;75.10;101363.50;5051687;28;19916;-81
2022/12/24 07:52:45;;;;;;;;;;;;;;;7.70;74.79;101367.03;5068428;28;19917;-81
2022/12/24 07:55:11;;;;;;;;;;;;;;;7.70;74.58;101372.22;5062905;28;20497;-82
2022/12/24 07:57:36;;;;;;;;;;;;;;;7.69;74.73;101375.59;5052067;28;20305;-82
2022/12/24 08:00:02;;;;;;;;;;;;;;;7.68;75.01;101378.06;5046172;28;19950;-82
2022/12/24 08:02:28;;;;;;;;;;;;;;;7.71;74.61;101371.41;5027820;28;20378;-85
2022/12/24 08:04:53;;;;;;;;;;;;;;;7.71;74.92;101370.50;5046198;28;19928;-82
2022/12/24 08:07:19;;;;;;;;;;;;;;;7.72;74.84;101364.50;5060349;28;20421;-85
2022/12/24 08:09:45;;;;;;;;;;;;;;;7.69;75.26;101359.09;5066123;28;19919;-83
2022/12/24 08:12:10;;;;;;;;;;;;;;;7.69;74.83;101365.19;5068319;28;20447;-83
2022/12/24 08:14:36;;;;;;;;;;;;;;;7.69;75.02;101360.00;5038243;28;19919;-84
2022/12/24 08:17:01;;;;;;;;;;;;;;;7.74;74.89;101361.22;5044096;28;19964;-83
2022/12/24 08:19:29;;;;;;;;;;;;;;;7.74;74.92;101362.94;5045690;28;19920;-85
2022/12/24 08:21:54;;;;;;;;;;;;;;;7.70;75.00;101359.22;5042826;28;19921;-83
2022/12/24 08:24:22;;;;;;;;;;;;;;;7.73;74.77;101342.94;5027925;28;19982;-84
2022/12/24 08:26:47;;;;;;;;;;;;;;;7.71;74.93;101347.13;5039335;28;19913;-83
2022/12/24 08:29:12;;;;;;;;;;;;;;;7.72;74.86;101339.41;5043199;28;19916;-84
2022/12/24 08:31:38;;;;;;;;;;;;;;;7.73;74.81;101343.84;5054383;28;19920;-84
2022/12/24 08:34:04;;;;;;;;;;;;;;;7.71;74.70;101344.50;5070470;28;19920;-84
2022/12/24 08:36:29;;;;;;;;;;;;;;;7.71;74.69;101335.00;5068284;28;19924;-83
2022/12/24 08:38:54;;;;;;;;;;;;;;;7.71;75.04;101344.50;5049135;28;19927;-84
2022/12/24 08:41:20;;;;;;;;;;;;;;;7.71;74.77;101340.22;5047272;28;19917;-83
2022/12/24 08:43:46;;;;;;;;;;;;;;;7.79;74.34;101335.59;5048323;28;19913;-84
2022/12/24 08:46:12;;;;;;;;;;;;;;;7.81;74.28;101333.09;5037544;28;19945;-83
2022/12/24 08:48:40;;;;;;;;;;;;;;;7.77;74.55;101333.66;5042995;28;19963;-83
2022/12/24 08:51:08;;;;;;;;;;;;;;;7.77;74.73;101326.78;5035641;28;19948;-83
2022/12/24 08:53:34;;;;;;;;;;;;;;;7.73;74.63;101325.63;5043840;28;20425;-82
2022/12/24 08:56:01;;;;;;;;;;;;;;;7.77;74.25;101323.25;5045972;28;20007;-82
2022/12/24 08:58:27;;;;;;;;;;;;;;;7.73;74.54;101317.84;5031566;28;19919;-82
2022/12/24 09:00:53;;;;;;;;;;;;;;;7.74;74.33;101324.81;5048907;28;20366;-82
2022/12/24 09:03:18;;;;;;;;;;;;;;;7.72;74.86;101315.13;5047100;28;20417;-82
2022/12/24 09:05:44;;;;;;;;;;;;;;;7.72;74.66;101316.00;5048157;28;19924;-82
2022/12/24 09:08:10;;;;;;;;;;;;;;;7.77;74.41;101313.78;5044432;28;20382;-83
2022/12/24 09:10:36;;;;;;;;;;;;;;;7.76;74.57;101309.34;5049377;28;19916;-82
2022/12/24 09:13:01;;;;;;;;;;;;;;;7.77;74.85;101312.84;5023860;28;20387;-82
2022/12/24 09:15:27;;;;;;;;;;;;;;;7.77;74.64;101302.44;5040212;28;20477;-82
2022/12/24 09:17:52;;;;;;;;;;;;;;;7.77;74.63;101312.84;5048145;28;19917;-82
2022/12/24 09:20:17;;;;;;;;;;;;;;;7.76;74.60;101314.56;5048910;28;19962;-82
2022/12/24 09:22:43;;;;;;;;;;;;;;;7.77;74.23;101305.97;5049489;28;20554;-83
2022/12/24 09:25:09;;;;;;;;;;;;;;;7.74;74.45;101306.63;5042938;28;20401;-83
2022/12/24 09:27:35;;;;;;;;;;;;;;;7.74;74.96;101298.84;5047407;28;19925;-83
2022/12/24 09:30:00;;;;;;;;;;;;;;;7.79;74.86;101299.19;5039531;28;19913;-84
2022/12/24 09:32:26;;;;;;;;;;;;;;;7.77;74.56;101292.97;5043516;28;19940;-83
2022/12/24 09:34:51;;;;;;;;;;;;;;;7.81;74.24;101296.69;5037069;28;19941;-84
2022/12/24 09:37:17;;;;;;;;;;;;;;;7.80;74.41;101300.09;5043919;28;19916;-83
2022/12/24 09:39:42;;;;;;;;;;;;;;;7.77;74.59;101297.25;5054039;28;19920;-83
2022/12/24 09:42:16;;;;;;;;;;;;;;;7.78;74.31;101291.28;5047182;28;20015;-83
2022/12/24 09:44:42;;;;;;;;;;;;;;;7.75;74.44;101286.75;5037986;28;20309;-83
2022/12/24 09:47:17;;;;;;;;;;;;;;;7.77;74.78;101286.84;5023987;28;19921;-83
2022/12/24 09:49:43;;;;;;;;;;;;;;;7.79;74.44;101280.06;5045820;28;19960;-84
2022/12/24 09:52:09;;;;;;;;;;;;;;;7.78;74.72;101279.19;5024581;28;19914;-84
2022/12/24 09:54:36;;;;;;;;;;;;;;;7.76;74.85;101267.75;5039601;28;19916;-83
2022/12/24 09:57:22;;;;;;;;;;;;;;;7.78;74.72;101267.88;5024064;28;19919;-83
2022/12/24 09:59:47;;;;;;;;;;;;;;;7.75;75.00;101258.16;5036286;28;19919;-82
2022/12/24 10:02:14;;;;;;;;;;;;;;;7.78;74.90;101265.28;5021924;28;19913;-83
2022/12/24 10:04:39;;;;;;;;;;;;;;;7.79;74.71;101260.19;5044397;28;19924;-81
2022/12/24 10:07:05;;;;;;;;;;;;;;;7.76;74.78;101259.97;5047410;28;19925;-83
2022/12/24 10:09:42;;;;;;;;;;;;;;;7.77;74.63;101258.25;5044369;28;19917;-84
2022/12/24 10:12:16;;;;;;;;;;;;;;;7.78;74.53;101254.88;5022051;28;20394;-82
2022/12/24 10:14:54;;;;;;;;;;;;;;;7.79;74.65;101255.00;5023409;28;19924;-83
2022/12/24 10:17:22;;;;;;;;;;;;;;;7.78;74.72;101245.38;5049119;28;19956;-82
2022/12/24 10:19:55;;;;;;;;;;;;;;;7.78;74.52;101245.38;5021667;28;20007;-81
2022/12/24 10:22:32;;;;;;;;;;;;;;;7.80;74.32;101251.59;5031730;28;20313;-82
2022/12/24 10:25:10;;;;;;;;;;;;;;;7.82;74.21;101241.31;5048914;28;19917;-85
2022/12/24 10:27:38;;;;;;;;;;;;;;;7.79;74.59;101244.59;5052557;28;20374;-82
2022/12/24 10:30:24;;;;;;;;;;;;;;;7.82;74.73;101241.31;5030362;28;19928;-83
2022/12/24 10:32:50;;;;;;;;;;;;;;;7.84;74.52;101248.41;5042463;28;20019;-85
2022/12/24 10:35:16;;;;;;;;;;;;;;;7.84;74.51;101244.94;5009719;28;20326;-85
2022/12/24 10:37:42;;;;;;;;;;;;;;;7.87;74.55;101247.72;5047066;28;20422;-85
2022/12/24 10:40:11;;;;;;;;;;;;;;;7.90;74.21;101237.56;5041390;28;19927;-86
2022/12/24 10:42:38;;;;;;;;;;;;;;;7.85;74.58;101241.50;5029878;28;20389;-85
2022/12/24 10:45:04;;;;;;;;;;;;;;;7.83;74.69;101241.44;5044040;28;20359;-84
2022/12/24 10:47:32;;;;;;;;;;;;;;;7.97;74.59;101242.41;5047977;28;20153;-83
2022/12/24 10:50:10;;;;;;;;;;;;;;;7.98;74.42;101249.44;5046117;28;19959;-84
2022/12/24 10:52:36;;;;;;;;;;;;;;;7.87;74.52;101240.88;5045202;28;19921;-84
2022/12/24 10:55:20;;;;;;;;;;;;;;;7.87;74.48;101234.72;5033437;28;20413;-84
2022/12/24 10:57:46;;;;;;;;;;;;;;;7.87;74.65;101238.25;5039390;28;19921;-84
2022/12/24 11:00:22;;;;;;;;;;;;;;;7.84;74.93;101235.41;5046984;28;20006;-84
2022/12/24 11:02:47;;;;;;;;;;;;;;;7.84;74.59;101230.22;5049630;28;20147;-83
2022/12/24 11:05:29;;;;;;;;;;;;;;;7.90;74.63;101237.56;5049740;28;20602;-84
2022/12/24 11:08:03;;;;;;;;;;;;;;;7.88;74.54;101233.97;5025978;28;19928;-84
2022/12/24 11:10:30;;;;;;;;;;;;;;;7.86;74.88;101235.53;5030700;28;19925;-84
2022/12/24 11:12:56;;;;;;;;;;;;;;;7.87;74.79;101233.06;5026931;28;19932;-83
2022/12/24 11:15:30;;;;;;;;;;;;;;;7.89;74.94;101235.75;5050501;28;19920;-83
2022/12/24 11:18:05;;;;;;;;;;;;;;;7.89;74.97;101228.84;5029162;28;19921;-83
2022/12/24 11:20:34;;;;;;;;;;;;;;;7.91;74.86;101232.47;5048146;28;19917;-83
2022/12/24 11:22:59;;;;;;;;;;;;;;;7.95;74.73;101234.50;5044210;28;20074;-83
2022/12/24 11:25:27;;;;;;;;;;;;;;;7.96;74.68;101238.00;5040384;28;20007;-83
2022/12/24 11:27:53;;;;;;;;;;;;;;;7.92;74.88;101233.38;5042493;28;20035;-83
2022/12/24 11:30:21;;;;;;;;;;;;;;;7.97;74.77;101237.22;5045359;28;20089;-84
2022/12/24 11:32:50;;;;;;;;;;;;;;;7.97;74.73;101236.31;5046344;28;20974;-84
2022/12/24 11:35:23;;;;;;;;;;;;;;;8.00;75.06;101241.72;5049233;28;19912;-84
2022/12/24 11:37:48;;;;;;;;;;;;;;;7.98;74.82;101235.50;5047478;28;19924;-83
2022/12/24 11:40:21;;;;;;;;;;;;;;;7.96;75.00;101235.41;5048489;28;19925;-83
2022/12/24 11:42:49;;;;;;;;;;;;;;;7.99;74.79;101232.13;5040323;28;19924;-84
2022/12/24 11:45:18;;;;;;;;;;;;;;;8.04;74.28;101228.16;5047870;28;20409;-83
2022/12/24 11:47:43;;;;;;;;;;;;;;;8.03;74.67;101232.44;5033697;28;19936;-83
2022/12/24 11:50:18;;;;;;;;;;;;;;;8.02;74.68;101235.84;5040433;28;20302;-83
2022/12/24 11:52:49;;;;;;;;;;;;;;;8.04;74.68;101244.66;5041001;28;19999;-83
2022/12/24 11:55:22;;;;;;;;;;;;;;;8.05;74.50;101241.25;5039482;28;19943;-84
2022/12/24 11:58:07;;;;;;;;;;;;;;;8.07;74.26;101238.78;5043350;28;19920;-84
2022/12/24 12:00:33;;;;;;;;;;;;;;;8.08;74.24;101241.47;5004126;28;19923;-83
2022/12/24 12:02:58;;;;;;;;;;;;;;;8.09;74.25;101248.50;5055899;28;20007;-84
2022/12/24 12:05:25;;;;;;;;;;;;;;;8.12;74.25;101246.09;5031144;28;19916;-84
2022/12/24 12:07:51;;;;;;;;;;;;;;;8.13;74.10;101247.03;5042377;28;19917;-83
2022/12/24 12:10:18;;;;;;;;;;;;;;;8.11;74.01;101252.09;5043074;28;19913;-83
2022/12/24 12:12:57;;;;;;;;;;;;;;;8.16;73.83;101255.03;5046880;28;19958;-83
2022/12/24 12:15:23;;;;;;;;;;;;;;;8.20;74.03;101251.84;5041872;28;19917;-83
2022/12/24 12:17:55;;;;;;;;;;;;;;;8.21;74.15;101255.34;5033146;28;19936;-84
2022/12/24 12:20:30;;;;;;;;;;;;;;;8.20;73.84;101257.06;5047270;28;19967;-84
2022/12/24 12:22:55;;;;;;;;;;;;;;;8.18;74.46;101255.16;5048637;28;19923;-82
2022/12/24 12:25:25;;;;;;;;;;;;;;;8.28;73.76;101260.22;5049532;28;19913;-84
2022/12/24 12:27:52;;;;;;;;;;;;;;;8.28;73.97;101255.91;5046310;28;20425;-83
2022/12/24 12:30:19;;;;;;;;;;;;;;;8.23;73.68;101262.47;5041749;28;19913;-82
2022/12/24 12:32:50;;;;;;;;;;;;;;;8.27;73.75;101267.09;5046116;28;19921;-83
2022/12/24 12:35:18;;;;;;;;;;;;;;;8.26;73.78;101262.72;5038565;28;20539;-84
2022/12/24 12:37:44;;;;;;;;;;;;;;;8.25;73.62;101262.59;5046546;28;19925;-85
2022/12/24 12:40:14;;;;;;;;;;;;;;;8.30;73.43;101264.72;5037230;28;19996;-85
2022/12/24 12:42:39;;;;;;;;;;;;;;;8.36;73.44;101264.28;5024010;28;20302;-84
2022/12/24 12:45:05;;;;;;;;;;;;;;;8.28;73.79;101262.81;5046576;28;19913;-83
2022/12/24 12:47:43;;;;;;;;;;;;;;;8.33;73.90;101259.72;5048123;28;19956;-84
2022/12/24 12:50:12;;;;;;;;;;;;;;;8.25;73.98;101247.88;5031606;28;20003;-84
2022/12/24 12:52:53;;;;;;;;;;;;;;;8.34;73.88;101258.06;5044091;28;20463;-84
2022/12/24 12:55:22;;;;;;;;;;;;;;;8.29;73.65;101264.63;5043593;28;19917;-84
2022/12/24 12:57:47;;;;;;;;;;;;;;;8.35;73.59;101263.34;5043835;28;20007;-84